Kaszuby — C6XD6 — position and weather

sailwx.info

Track history (hours):
 
Tides and Currents Weather Stations Pressure Air Temp Water Temp Dewpoint Dewpoint Depression Visibility Wind Speed Wind Dir Waves Ship Positions

Kaszuby

Last reported at 2014-Oct-19 20:07 UTC. Time now 2014-Oct-21 20:02 UTC.
Position N 40°11' W 030°33'.

Length 190 m; draft 10.6 m.

Type: Cargo ship. MMSI: 311005600.

Date/timePositionNaut miles runAvg speedWind from/ knotsBaromVisibWave heightAir tempDewpointWater temp
2014-Oct-19 20:07N 40°11' W 030°33'  
2014-Oct-12 13:24N 50°31' W 000°02'910.7
2014-Oct-12 12:33N 50°33' E 000°11'10 9.7
2014-Oct-12 11:33N 50°36' E 000°26'9 9.4
2014-Oct-12 10:33N 50°40' E 000°39'1611.4
2014-Oct-12 09:08N 50°50' E 001°00'813.1
2014-Oct-12 08:33N 50°55' E 001°10'1413.8
2014-Oct-12 07:34N 51°03' E 001°27'1212.0
2014-Oct-12 06:33N 51°11' E 001°41'1110.5
2014-Oct-12 05:33N 51°20' E 001°50'9 9.5
2014-Oct-12 04:33N 51°28' E 001°59'9 9.3
2014-Oct-12 03:34N 51°35' E 002°09'9 9.4
2014-Oct-12 02:33N 51°42' E 002°19'17310.8
2014-Oct-11 10:33N 54°16' E 004°28'16410.2
2014-Oct-10 18:32N 56°30' E 007°14'9 9.3
2014-Oct-10 17:33N 56°37' E 007°24'101 8.4
2014-Oct-10 05:27N 57°44' E 009°45'8 9.0
2014-Oct-10 04:33N 57°46' E 009°60'9 8.6
2014-Oct-10 03:33N 57°47' E 010°16'9 9.5
2014-Oct-10 02:33N 57°49' E 010°33'9 9.0
2014-Oct-10 01:33N 57°47' E 010°50'1111.2
2014-Oct-10 00:33N 57°39' E 011°05'1212.1
2014-Oct-09 23:33N 57°31' E 011°21'1111.0
2014-Oct-09 22:33N 57°21' E 011°31'1111.5
2014-Oct-09 21:33N 57°11' E 011°39'1211.8
2014-Oct-09 20:33N 56°59' E 011°46'  
Track history (hours):
 
Tides and Currents Weather Stations Pressure Air Temp Water Temp Dewpoint Dewpoint Depression Visibility Wind Speed Wind Dir Waves Ship Positions

Kaszuby

Last reported at 2014-Oct-19 20:07 UTC. Time now 2014-Oct-21 20:02 UTC.
Position N 40°11' W 030°33'.

Length 190 m; draft 10.6 m.

Type: Cargo ship. MMSI: 311005600.

Date/timePositionNaut miles runAvg speedWind from/ knotsBaromVisibWave heightAir tempDewpointWater temp
2014-Oct-19 20:07N 40°11' W 030°33'  
2014-Oct-12 13:24N 50°31' W 000°02'910.7
2014-Oct-12 12:33N 50°33' E 000°11'10 9.7
2014-Oct-12 11:33N 50°36' E 000°26'9 9.4
2014-Oct-12 10:33N 50°40' E 000°39'1611.4
2014-Oct-12 09:08N 50°50' E 001°00'813.1
2014-Oct-12 08:33N 50°55' E 001°10'1413.8
2014-Oct-12 07:34N 51°03' E 001°27'1212.0
2014-Oct-12 06:33N 51°11' E 001°41'1110.5
2014-Oct-12 05:33N 51°20' E 001°50'9 9.5
2014-Oct-12 04:33N 51°28' E 001°59'9 9.3
2014-Oct-12 03:34N 51°35' E 002°09'9 9.4
2014-Oct-12 02:33N 51°42' E 002°19'17310.8
2014-Oct-11 10:33N 54°16' E 004°28'16410.2
2014-Oct-10 18:32N 56°30' E 007°14'9 9.3
2014-Oct-10 17:33N 56°37' E 007°24'101 8.4
2014-Oct-10 05:27N 57°44' E 009°45'8 9.0
2014-Oct-10 04:33N 57°46' E 009°60'9 8.6
2014-Oct-10 03:33N 57°47' E 010°16'9 9.5
2014-Oct-10 02:33N 57°49' E 010°33'9 9.0
2014-Oct-10 01:33N 57°47' E 010°50'1111.2
2014-Oct-10 00:33N 57°39' E 011°05'1212.1
2014-Oct-09 23:33N 57°31' E 011°21'1111.0
2014-Oct-09 22:33N 57°21' E 011°31'1111.5
2014-Oct-09 21:33N 57°11' E 011°39'1211.8
2014-Oct-09 20:33N 56°59' E 011°46'  

Dump ship's entire track history